createdAt,value
2023-01-10T02:07:40.380Z,65.69
2023-01-10T02:12:50.968Z,65.02
2023-01-10T02:18:00.037Z,64.84
2023-01-10T02:23:45.050Z,65.03
2023-01-10T02:29:25.204Z,65.20
2023-01-10T02:34:41.561Z,64.71
2023-01-10T02:39:56.849Z,64.74
2023-01-10T02:45:10.105Z,64.76
2023-01-10T02:50:35.761Z,64.80
2023-01-10T02:55:58.981Z,64.58
2023-01-10T03:01:13.793Z,64.94
2023-01-10T03:06:34.489Z,64.76
2023-01-10T03:11:44.676Z,64.59
2023-01-10T03:16:56.212Z,64.70
2023-01-10T03:22:09.104Z,64.62
2023-01-10T03:27:22.982Z,64.46
2023-01-10T03:32:33.587Z,64.65
2023-01-10T03:38:04.635Z,64.67
2023-01-10T03:43:32.538Z,64.89
2023-01-10T03:48:44.145Z,64.72
2023-01-10T03:53:54.378Z,65.09
2023-01-10T03:59:02.064Z,64.90
2023-01-10T04:04:09.603Z,64.85
2023-01-10T04:09:19.780Z,64.93
2023-01-10T04:14:27.681Z,64.61
2023-01-10T04:19:35.186Z,64.80
2023-01-10T04:24:47.223Z,64.55
2023-01-10T04:29:54.784Z,64.51
2023-01-10T04:35:02.350Z,64.26
2023-01-10T04:40:17.256Z,64.62
2023-01-10T04:45:24.835Z,64.55
2023-01-10T04:50:32.408Z,64.36
2023-01-10T04:55:42.522Z,65.01
2023-01-10T05:00:50.079Z,64.67
2023-01-10T05:06:00.863Z,64.90
2023-01-10T05:11:10.754Z,64.87
2023-01-10T05:16:18.751Z,64.71
2023-01-10T05:21:26.520Z,64.88
2023-01-10T05:26:36.680Z,64.74
2023-01-10T05:31:44.302Z,65.04
2023-01-10T05:36:51.867Z,64.79
2023-01-10T05:42:02.111Z,64.74
2023-01-10T05:47:09.664Z,65.03
2023-01-10T05:52:17.537Z,64.95
2023-01-10T05:57:27.677Z,65.09
2023-01-10T06:02:35.503Z,64.94
2023-01-10T06:07:43.084Z,64.65
2023-01-10T06:12:53.229Z,64.44
2023-01-10T06:18:01.202Z,64.00
2023-01-10T06:23:08.815Z,63.89
2023-01-10T06:28:18.932Z,63.82
2023-01-10T06:33:26.845Z,64.00
2023-01-10T06:38:34.434Z,63.88
2023-01-10T06:43:46.050Z,64.13
2023-01-10T06:48:53.592Z,64.13
2023-01-10T06:54:01.102Z,63.89
2023-01-10T06:59:11.810Z,64.17
2023-01-10T07:04:19.118Z,63.85
2023-01-10T07:09:27.397Z,63.87
2023-01-10T07:14:37.564Z,64.16
2023-01-10T07:19:45.435Z,63.97
2023-01-10T07:24:54.679Z,64.18
2023-01-10T07:30:05.042Z,64.19
2023-01-10T07:35:12.807Z,64.58
2023-01-10T07:40:21.206Z,64.69
2023-01-10T07:45:32.770Z,64.63
2023-01-10T07:50:40.697Z,64.56
2023-01-10T07:55:48.259Z,64.43
2023-01-10T08:01:03.651Z,64.73
2023-01-10T08:06:14.823Z,64.81
2023-01-10T08:11:24.110Z,64.68
2023-01-10T08:16:34.228Z,64.77
2023-01-10T08:21:41.762Z,64.94
2023-01-10T08:26:49.678Z,64.80
2023-01-10T08:32:00.774Z,64.95
2023-01-10T08:37:08.509Z,64.74
2023-01-10T08:42:16.672Z,64.94
2023-01-10T08:47:26.937Z,64.82
2023-01-10T08:52:34.505Z,65.00
2023-01-10T08:57:42.071Z,64.99
2023-01-10T09:02:52.228Z,65.11
2023-01-10T09:08:03.163Z,65.00
2023-01-10T09:13:10.706Z,65.35
2023-01-10T09:18:21.519Z,65.78
2023-01-10T09:23:29.142Z,66.23
2023-01-10T09:28:36.931Z,65.35
2023-01-10T09:33:48.948Z,65.74
2023-01-10T09:38:56.519Z,65.88
2023-01-10T09:44:07.928Z,66.05
2023-01-10T09:49:30.740Z,65.79
2023-01-10T09:54:44.029Z,66.21
2023-01-10T09:59:55.036Z,65.66
2023-01-10T10:05:15.136Z,66.17
2023-01-10T10:10:27.156Z,66.22
2023-01-10T10:15:46.080Z,66.04
2023-01-10T10:21:05.648Z,65.63
2023-01-10T10:26:21.114Z,65.82
2023-01-10T10:31:41.212Z,65.74
2023-01-10T10:36:56.182Z,65.82
2023-01-10T10:42:05.117Z,65.54
2023-01-10T10:47:18.465Z,65.82
2023-01-10T10:52:34.458Z,65.59
2023-01-10T10:57:59.062Z,65.60
2023-01-10T11:03:17.219Z,65.31
2023-01-10T11:08:27.602Z,65.47
2023-01-10T11:13:46.243Z,65.28
2023-01-10T11:19:14.522Z,65.19
2023-01-10T11:24:29.894Z,64.96
2023-01-10T11:29:43.395Z,65.05
2023-01-10T11:34:55.141Z,64.98
2023-01-10T11:40:26.408Z,64.79
2023-01-10T11:45:37.516Z,64.82
2023-01-10T11:50:51.407Z,64.67
2023-01-10T11:56:01.737Z,64.27
2023-01-10T12:01:13.223Z,64.06
2023-01-10T12:06:20.999Z,63.89
2023-01-10T12:11:35.941Z,63.67
2023-01-10T12:16:43.549Z,63.94
2023-01-10T12:21:51.557Z,63.74
2023-01-10T12:27:04.740Z,63.82
2023-01-10T12:32:20.768Z,63.44
2023-01-10T12:37:37.256Z,63.61
2023-01-10T12:43:08.625Z,63.70
2023-01-10T12:48:24.529Z,62.93
2023-01-10T12:53:36.641Z,62.73
2023-01-10T12:58:50.707Z,62.26
2023-01-10T13:04:05.061Z,62.40
2023-01-10T13:09:17.539Z,62.68
2023-01-10T13:14:34.758Z,62.15
2023-01-10T13:19:42.870Z,61.84
2023-01-10T13:25:02.396Z,61.21
2023-01-10T13:30:29.323Z,61.37
2023-01-10T13:35:43.643Z,60.74
2023-01-10T13:41:30.837Z,60.16
2023-01-10T13:46:46.330Z,60.21
2023-01-10T13:52:24.351Z,60.74
2023-01-10T13:57:54.168Z,59.76
2023-01-10T14:03:04.335Z,60.05
2023-01-10T14:08:18.964Z,60.26
2023-01-10T14:13:26.626Z,60.71
2023-01-10T14:18:41.991Z,60.46
2023-01-10T14:23:54.193Z,59.88
2023-01-10T14:29:03.870Z,59.90
2023-01-10T14:34:23.456Z,59.80
2023-01-10T14:39:37.803Z,60.03
2023-01-10T14:44:50.947Z,59.53
2023-01-10T14:50:02.597Z,59.28
2023-01-10T14:55:21.515Z,59.71
2023-01-10T15:00:32.140Z,59.77
2023-01-10T15:05:50.047Z,59.54
2023-01-10T15:11:02.539Z,59.87
2023-01-10T15:16:10.822Z,59.89
2023-01-10T15:21:25.209Z,59.39
2023-01-10T15:26:34.458Z,59.53
2023-01-10T15:31:44.489Z,59.49
2023-01-10T15:36:58.308Z,59.30
2023-01-10T15:42:12.278Z,59.94
2023-01-10T15:47:40.540Z,58.83
2023-01-10T15:52:56.358Z,59.50
2023-01-10T15:58:05.731Z,60.14
2023-01-10T16:03:23.245Z,60.08
2023-01-10T16:08:35.734Z,60.30
2023-01-10T16:13:43.309Z,60.00
2023-01-10T16:18:50.841Z,60.46
2023-01-10T16:24:01.037Z,60.52
2023-01-10T16:29:09.480Z,60.36
2023-01-10T16:34:17.365Z,60.44
2023-01-10T16:39:27.473Z,59.99
2023-01-10T16:44:36.148Z,60.24
2023-01-10T16:49:45.514Z,59.99
2023-01-10T16:54:56.555Z,59.75
2023-01-10T17:00:04.600Z,60.07
2023-01-10T17:05:15.685Z,59.90
2023-01-10T17:10:26.549Z,60.04
2023-01-10T17:15:35.217Z,59.95
2023-01-10T17:20:42.753Z,60.25
2023-01-10T17:26:00.654Z,59.86
2023-01-10T17:31:08.452Z,59.91
2023-01-10T17:36:18.892Z,59.86
2023-01-10T17:41:29.167Z,59.23
2023-01-10T17:46:36.885Z,59.98
2023-01-10T17:51:44.429Z,60.06
2023-01-10T17:56:54.549Z,59.56
2023-01-10T18:02:03.044Z,60.16
2023-01-10T18:07:12.911Z,60.12
2023-01-10T18:12:23.141Z,59.79
2023-01-10T18:17:30.821Z,60.07
2023-01-10T18:22:50.822Z,59.69
2023-01-10T18:28:00.995Z,59.96
2023-01-10T18:33:08.533Z,60.01
2023-01-10T18:38:16.173Z,60.29
2023-01-10T18:43:26.330Z,59.96
2023-01-10T18:48:33.944Z,60.07
2023-01-10T18:53:41.487Z,60.10
2023-01-10T18:58:51.632Z,60.13
2023-01-10T19:04:01.052Z,60.15
2023-01-10T19:09:09.277Z,60.15
2023-01-10T19:14:20.051Z,60.04
2023-01-10T19:19:27.617Z,60.23
2023-01-10T19:24:37.765Z,60.00
2023-01-10T19:29:50.137Z,59.99
2023-01-10T19:40:12.413Z,60.18
2023-01-10T19:45:22.510Z,60.06
2023-01-10T19:50:30.130Z,60.25
2023-01-10T19:55:37.739Z,60.14
2023-01-10T20:00:48.234Z,60.35
2023-01-10T20:05:56.213Z,60.30
2023-01-10T20:11:06.561Z,60.58
2023-01-10T20:16:19.706Z,60.20
2023-01-10T20:21:27.285Z,60.13
2023-01-10T20:26:34.989Z,60.19
2023-01-10T20:31:47.344Z,60.18
2023-01-10T20:36:55.267Z,60.29
2023-01-10T20:42:02.852Z,60.36
2023-01-10T20:47:12.947Z,60.30
2023-01-10T20:52:20.427Z,60.11
2023-01-10T20:57:28.010Z,60.32
2023-01-10T21:02:38.510Z,59.92
2023-01-10T21:07:46.148Z,60.28
2023-01-10T21:12:53.735Z,60.03
2023-01-10T21:18:03.941Z,59.97
2023-01-10T21:23:12.200Z,60.34
2023-01-10T21:28:19.924Z,60.07
2023-01-10T21:33:30.155Z,60.33
2023-01-10T21:38:40.563Z,60.31
2023-01-10T21:43:48.647Z,60.17
2023-01-10T21:48:58.794Z,59.90
2023-01-10T21:54:06.565Z,60.25
2023-01-10T21:59:14.121Z,60.34
2023-01-10T22:04:24.479Z,59.99
2023-01-10T22:09:32.073Z,60.17
2023-01-10T22:14:39.679Z,59.69
2023-01-10T22:19:49.851Z,59.78
2023-01-10T22:24:57.438Z,59.75
2023-01-10T22:30:05.201Z,59.60
2023-01-10T22:35:15.933Z,59.58
2023-01-10T22:40:23.855Z,59.54
2023-01-10T22:45:31.983Z,59.47
2023-01-10T22:50:42.369Z,59.00
2023-01-10T22:55:50.005Z,59.08
2023-01-10T23:00:57.542Z,59.18
2023-01-10T23:06:07.897Z,59.04
2023-01-10T23:11:18.474Z,59.27
2023-01-10T23:16:28.929Z,59.36
2023-01-10T23:21:39.197Z,59.47
2023-01-10T23:26:46.739Z,59.55
2023-01-10T23:31:54.340Z,59.40
2023-01-10T23:37:04.879Z,59.66
2023-01-10T23:42:12.421Z,59.53
2023-01-10T23:47:20.191Z,59.40
2023-01-10T23:52:30.338Z,59.47
2023-01-10T23:57:37.896Z,59.69
